Terminal Aerodrome Forecast
Issued by NWS Los Angeles, CA

Home | Current Version | Previous Version | Text Only | Print | Product List | Glossary On
Versions: 1 2 3 4 5 6 7 8 9 10 11 12 13 14 15 16 17 18 19 20 21
000
FTUS46 KLOX 241136
TAFSMX
TAF
KSMX 241136Z 2412/2512 VRB03KT 3SM BR OVC006
     FM241600 VRB03KT 6SM BR OVC009
     FM241800 30007KT P6SM SCT010
     FM242000 30013KT 6SM BR SCT006
     FM250200 30006KT 5SM BR OVC006
     FM250700 VRB03KT 2SM BR OVC003=

USA.gov is the U.S. government's official web portal to all federal, state and local government web resources and services.